Time;durP1;ratioP1;P1;durP2;ratioP2;P2;SDS_P1;SDS_P2;PMS_P1;PMS_P2;Temp;Humidity;BMP_temperature;BMP_pressure;BME280_temperature;BME280_humidity;BME280_pressure;Samples;Min_cycle;Max_cycle;Signal;HPM_P1;HPM_P2
2024/01/30 00:01:54;;;;;;;16.10;9.50;;;;;;;1.24;100.00;100582.00;4936240;29;20535;-70
2024/01/30 00:04:20;;;;;;;15.50;8.93;;;;;;;1.16;100.00;100587.63;4902017;29;20187;-70
2024/01/30 00:06:48;;;;;;;17.83;9.70;;;;;;;1.14;100.00;100563.28;4906620;29;20059;-71
2024/01/30 00:09:15;;;;;;;16.80;8.83;;;;;;;1.16;100.00;100552.75;4920629;29;20086;-71
2024/01/30 00:11:44;;;;;;;16.67;8.63;;;;;;;1.11;100.00;100544.28;4952415;28;20146;-71
2024/01/30 00:14:11;;;;;;;17.47;8.77;;;;;;;1.07;100.00;100555.81;4918646;29;20146;-72
2024/01/30 00:16:38;;;;;;;18.50;9.30;;;;;;;1.06;100.00;100541.06;4953003;28;20047;-71
2024/01/30 00:19:04;;;;;;;17.27;8.27;;;;;;;1.07;100.00;100558.44;4921028;29;20073;-72
2024/01/30 00:21:29;;;;;;;17.80;9.20;;;;;;;1.07;100.00;100566.28;4921052;29;20051;-72
2024/01/30 00:23:58;;;;;;;16.83;8.43;;;;;;;1.28;100.00;100562.59;4929352;28;20064;-71
2024/01/30 00:26:24;;;;;;;16.83;9.03;;;;;;;1.23;100.00;100580.31;4959342;28;20054;-71
2024/01/30 00:28:50;;;;;;;15.50;8.30;;;;;;;1.29;100.00;100557.28;4975158;28;20405;-71
2024/01/30 00:31:16;;;;;;;17.13;8.70;;;;;;;1.29;100.00;100556.44;4955429;28;20194;-71
2024/01/30 00:33:42;;;;;;;15.83;9.03;;;;;;;1.30;100.00;100558.13;4955856;28;20508;-72
2024/01/30 00:36:11;;;;;;;14.20;8.33;;;;;;;1.31;100.00;100550.19;4924123;28;20219;-72
2024/01/30 00:38:37;;;;;;;17.70;8.47;;;;;;;1.34;100.00;100551.81;5027928;28;20152;-71
2024/01/30 00:41:03;;;;;;;15.87;8.50;;;;;;;1.42;100.00;100557.50;4981678;28;20139;-72
2024/01/30 00:43:31;;;;;;;18.87;9.23;;;;;;;1.41;100.00;100556.69;4982592;28;20450;-72
2024/01/30 00:45:58;;;;;;;15.33;8.43;;;;;;;1.45;100.00;100560.81;4982438;28;20045;-72
2024/01/30 00:48:25;;;;;;;15.13;8.13;;;;;;;1.48;100.00;100546.72;4982332;28;20048;-72
2024/01/30 00:50:52;;;;;;;15.57;7.80;;;;;;;1.50;100.00;100542.25;4983117;28;20365;-72
2024/01/30 00:53:19;;;;;;;16.60;9.33;;;;;;;1.36;100.00;100542.97;4966236;28;20594;-71
2024/01/30 00:55:44;;;;;;;15.63;8.80;;;;;;;1.31;100.00;100546.72;5015219;28;20140;-70
2024/01/30 00:58:15;;;;;;;15.67;8.27;;;;;;;1.34;100.00;100543.97;4986306;28;20582;-72
2024/01/30 01:00:49;;;;;;;14.67;8.73;;;;;;;1.40;100.00;100535.78;4967823;28;20054;-72
2024/01/30 01:03:15;;;;;;;16.13;8.30;;;;;;;1.43;100.00;100549.56;4962182;28;20112;-72
2024/01/30 01:05:45;;;;;;;16.70;9.10;;;;;;;1.40;100.00;100541.88;4977870;28;20535;-72
2024/01/30 01:08:15;;;;;;;15.60;8.63;;;;;;;1.36;100.00;100550.81;5000212;28;20123;-72
2024/01/30 01:10:45;;;;;;;16.58;8.65;;;;;;;1.47;100.00;100535.44;4997672;28;20063;-72
2024/01/30 01:13:19;;;;;;;18.33;9.03;;;;;;;1.49;100.00;100543.19;4983739;28;20488;-72
2024/01/30 01:15:46;;;;;;;18.50;9.03;;;;;;;1.45;100.00;100531.16;4965110;28;20057;-72
2024/01/30 01:18:14;;;;;;;17.50;9.63;;;;;;;1.49;100.00;100530.94;4997204;28;20033;-72
2024/01/30 01:20:43;;;;;;;14.57;8.33;;;;;;;1.57;100.00;100544.47;5013093;28;20056;-73
2024/01/30 01:23:10;;;;;;;16.47;8.83;;;;;;;1.61;100.00;100547.78;5033218;28;20045;-73
2024/01/30 01:25:36;;;;;;;15.73;9.23;;;;;;;1.54;100.00;100547.25;5000471;28;20162;-72
2024/01/30 01:28:03;;;;;;;17.27;8.10;;;;;;;1.64;100.00;100545.00;5033067;28;20392;-73
2024/01/30 01:30:31;;;;;;;16.33;9.03;;;;;;;1.58;100.00;100543.53;5000963;28;20049;-73
2024/01/30 01:33:01;;;;;;;15.50;8.20;;;;;;;1.71;100.00;100539.38;4984342;28;20148;-71
2024/01/30 01:35:28;;;;;;;15.90;8.97;;;;;;;1.64;100.00;100537.16;5017273;28;20170;-72
2024/01/30 01:37:56;;;;;;;18.07;8.63;;;;;;;1.69;100.00;100535.97;4984432;28;20048;-72
2024/01/30 01:40:28;;;;;;;14.77;8.63;;;;;;;1.77;100.00;100522.47;4997463;28;20064;-72
2024/01/30 01:42:55;;;;;;;16.17;8.00;;;;;;;1.70;100.00;100532.44;4980850;28;20511;-73
2024/01/30 01:45:22;;;;;;;14.27;8.40;;;;;;;1.72;100.00;100535.00;5013591;28;20052;-72
2024/01/30 01:47:51;;;;;;;17.77;9.03;;;;;;;1.72;100.00;100530.56;4997734;28;20095;-72
2024/01/30 01:50:20;;;;;;;13.70;7.97;;;;;;;1.67;100.00;100511.66;5013614;28;20053;-71
2024/01/30 01:52:48;;;;;;;16.77;8.40;;;;;;;1.73;100.00;100529.66;5013489;28;20064;-72
2024/01/30 01:55:26;;;;;;;14.67;7.77;;;;;;;1.77;100.00;100514.63;4978615;28;20066;-71
2024/01/30 01:57:53;;;;;;;14.10;8.00;;;;;;;1.79;100.00;100525.88;4962265;28;20146;-71
2024/01/30 02:00:20;;;;;;;15.83;8.40;;;;;;;1.82;100.00;100520.47;4961793;28;20174;-72
2024/01/30 02:02:46;;;;;;;15.97;8.77;;;;;;;1.73;100.00;100503.47;4978357;28;20057;-71
2024/01/30 02:05:12;;;;;;;14.70;8.90;;;;;;;1.81;100.00;100507.47;4980911;28;20065;-71
2024/01/30 02:07:42;;;;;;;16.87;9.10;;;;;;;1.82;100.00;100512.63;4964907;28;20045;-71
2024/01/30 02:10:09;;;;;;;17.00;8.57;;;;;;;1.75;100.00;100493.75;4997236;28;20080;-71
2024/01/30 02:12:37;;;;;;;14.33;8.07;;;;;;;1.73;100.00;100506.09;5020764;28;20041;-71
2024/01/30 02:15:07;;;;;;;16.57;8.90;;;;;;;1.83;100.00;100505.59;5020524;28;20053;-71
2024/01/30 02:17:43;;;;;;;15.03;8.57;;;;;;;1.78;100.00;100498.00;5021306;28;20467;-71
2024/01/30 02:20:12;;;;;;;13.63;7.88;;;;;;;1.84;100.00;100497.66;5005029;28;20075;-72
2024/01/30 02:22:39;;;;;;;14.67;8.00;;;;;;;1.89;100.00;100492.19;5005006;28;20056;-72
2024/01/30 02:25:08;;;;;;;13.87;8.00;;;;;;;1.93;100.00;100491.06;5004833;28;20068;-72
2024/01/30 02:27:34;;;;;;;16.60;9.17;;;;;;;1.91;100.00;100492.94;5004175;28;20044;-72
2024/01/30 02:30:01;;;;;;;14.63;8.37;;;;;;;1.94;100.00;100504.09;5036126;28;20424;-72
2024/01/30 02:32:31;;;;;;;12.68;7.80;;;;;;;1.97;100.00;100503.09;5004112;28;20480;-72
2024/01/30 02:34:57;;;;;;;16.90;7.93;;;;;;;2.01;100.00;100496.75;5020024;28;20502;-72
2024/01/30 02:37:24;;;;;;;12.13;7.07;;;;;;;2.05;100.00;100503.50;5019621;28;20080;-72
2024/01/30 02:39:52;;;;;;;16.87;8.60;;;;;;;2.07;100.00;100499.88;5003390;28;20052;-72
2024/01/30 02:42:20;;;;;;;16.17;8.17;;;;;;;2.11;100.00;100488.28;5033904;28;20049;-73
2024/01/30 02:44:47;;;;;;;13.63;8.03;;;;;;;2.07;100.00;100505.13;5000218;28;20045;-73
2024/01/30 02:47:14;;;;;;;13.77;7.73;;;;;;;2.04;100.00;100509.69;5000475;28;20091;-73
2024/01/30 02:49:39;;;;;;;14.13;7.77;;;;;;;2.12;100.00;100499.63;4983688;28;20057;-73
2024/01/30 02:52:07;;;;;;;13.60;7.87;;;;;;;2.19;100.00;100486.09;4997788;28;20401;-72
2024/01/30 02:54:34;;;;;;;13.93;8.30;;;;;;;2.14;100.00;100490.75;4996950;28;20132;-72
2024/01/30 02:57:00;;;;;;;13.97;7.70;;;;;;;2.22;100.00;100516.53;4996315;28;20058;-71
2024/01/30 02:59:26;;;;;;;14.07;8.10;;;;;;;2.22;100.00;100504.28;4979945;28;20061;-71
2024/01/30 03:01:54;;;;;;;14.07;8.13;;;;;;;2.27;100.00;100477.81;4979939;28;20135;-72
2024/01/30 03:04:24;;;;;;;14.90;8.23;;;;;;;2.25;100.00;100490.16;4980016;28;20140;-71
2024/01/30 03:06:50;;;;;;;16.67;8.43;;;;;;;2.26;100.00;100492.69;4979783;28;20168;-71
2024/01/30 03:09:19;;;;;;;11.60;7.67;;;;;;;2.34;100.00;100502.78;4979280;28;20054;-72
2024/01/30 03:11:46;;;;;;;16.13;7.93;;;;;;;2.29;100.00;100489.88;4973204;28;20445;-70
2024/01/30 03:14:13;;;;;;;13.23;8.17;;;;;;;2.28;100.00;100489.97;4940664;28;20055;-70
2024/01/30 03:16:42;;;;;;;17.77;8.83;;;;;;;2.24;100.00;100498.94;4941261;28;20087;-71
2024/01/30 03:19:09;;;;;;;13.93;8.47;;;;;;;2.27;100.00;100504.88;4973280;28;20046;-72
2024/01/30 03:21:41;;;;;;;13.83;8.30;;;;;;;2.34;100.00;100505.38;4957944;28;20162;-71
2024/01/30 03:24:10;;;;;;;13.00;8.10;;;;;;;2.47;100.00;100517.72;4975586;28;20473;-71
2024/01/30 03:26:42;;;;;;;14.17;7.90;;;;;;;2.53;100.00;100513.91;4945334;28;20062;-71
2024/01/30 03:29:09;;;;;;;13.07;7.70;;;;;;;2.51;100.00;100516.59;4957162;28;20189;-71
2024/01/30 03:31:37;;;;;;;15.73;8.10;;;;;;;2.53;100.00;100514.75;4956844;28;20067;-71
2024/01/30 03:34:04;;;;;;;14.23;7.93;;;;;;;2.54;100.00;100515.56;4940739;28;20061;-71
2024/01/30 03:36:32;;;;;;;13.90;8.30;;;;;;;2.53;100.00;100512.13;4940186;28;20079;-71
2024/01/30 03:38:59;;;;;;;13.60;8.13;;;;;;;2.52;100.00;100520.91;4953726;28;20063;-71
2024/01/30 03:41:26;;;;;;;12.97;7.50;;;;;;;2.54;100.00;100521.69;4906052;29;20512;-71
2024/01/30 03:43:53;;;;;;;11.67;7.67;;;;;;;2.56;100.00;100532.94;4936349;28;20058;-71
2024/01/30 03:46:24;;;;;;;11.97;7.80;;;;;;;2.56;100.00;100521.59;4934489;29;20486;-71
2024/01/30 03:48:53;;;;;;;13.77;8.07;;;;;;;2.54;100.00;100526.91;4934721;29;20059;-71
2024/01/30 03:51:25;;;;;;;14.83;8.23;;;;;;;2.53;100.00;100521.75;4918282;29;20095;-71
2024/01/30 03:53:55;;;;;;;12.93;7.57;;;;;;;2.59;100.00;100516.16;4935170;29;20165;-72
2024/01/30 03:56:25;;;;;;;14.17;8.03;;;;;;;2.56;100.00;100516.34;4937285;29;20051;-71
2024/01/30 03:58:52;;;;;;;13.87;7.63;;;;;;;2.60;100.00;100517.88;4936958;28;20055;-71
2024/01/30 04:01:19;;;;;;;13.07;7.53;;;;;;;2.62;100.00;100529.09;4923967;28;20054;-71
2024/01/30 04:03:45;;;;;;;11.83;7.37;;;;;;;2.68;100.00;100527.00;4940345;28;20153;-73
2024/01/30 04:06:13;;;;;;;13.13;7.97;;;;;;;2.69;100.00;100539.16;4908700;28;20078;-74
2024/01/30 04:08:41;;;;;;;11.60;7.20;;;;;;;2.73;100.00;100524.97;4940365;28;20054;-73
2024/01/30 04:11:17;;;;;;;12.93;7.37;;;;;;;2.78;100.00;100528.16;4956348;28;20065;-74
2024/01/30 04:13:48;;;;;;;14.20;7.93;;;;;;;2.82;100.00;100529.69;4926484;28;20114;-74
2024/01/30 04:16:21;;;;;;;11.70;7.57;;;;;;;2.84;100.00;100537.47;5016642;28;20594;-73
2024/01/30 04:19:03;;;;;;;11.73;7.53;;;;;;;2.83;100.00;100535.78;5003772;28;20077;-70
2024/01/30 04:21:33;;;;;;;12.70;7.90;;;;;;;2.81;100.00;100530.63;5014367;28;20483;-71
2024/01/30 04:24:11;;;;;;;12.33;7.43;;;;;;;2.80;100.00;100531.53;4999218;28;20521;-70
2024/01/30 04:26:38;;;;;;;13.50;7.20;;;;;;;2.86;100.00;100536.44;5013228;28;20199;-71
2024/01/30 04:29:07;;;;;;;10.93;7.47;;;;;;;2.87;100.00;100540.75;4961205;28;20042;-69
2024/01/30 04:31:37;;;;;;;11.07;6.97;;;;;;;2.97;100.00;100546.31;4983926;28;20057;-72
2024/01/30 04:34:06;;;;;;;13.43;7.47;;;;;;;2.92;100.00;100532.63;4984611;28;20037;-69
2024/01/30 04:36:37;;;;;;;11.47;6.83;;;;;;;3.00;100.00;100522.50;4984986;28;20049;-72
2024/01/30 04:39:10;;;;;;;12.33;7.27;;;;;;;2.97;100.00;100534.03;4985752;28;20293;-69
2024/01/30 04:41:36;;;;;;;10.20;6.87;;;;;;;2.95;100.00;100530.66;4990524;28;20515;-70
2024/01/30 04:44:04;;;;;;;13.00;8.00;;;;;;;2.97;100.00;100528.78;4990991;28;20042;-70
2024/01/30 04:46:32;;;;;;;11.00;6.83;;;;;;;2.99;100.00;100523.44;4973727;28;20061;-71
2024/01/30 04:48:58;;;;;;;14.27;8.00;;;;;;;3.00;100.00;100515.50;4952515;28;20134;-71
2024/01/30 04:51:24;;;;;;;13.67;7.60;;;;;;;3.01;100.00;100519.78;4974783;28;20109;-71
2024/01/30 04:53:52;;;;;;;11.87;6.60;;;;;;;3.11;100.00;100528.84;4982906;28;20042;-69
2024/01/30 04:56:21;;;;;;;10.40;6.80;;;;;;;3.10;100.00;100516.66;4968380;28;20046;-72
2024/01/30 04:58:53;;;;;;;11.03;6.33;;;;;;;3.17;100.00;100523.22;4892478;29;20055;-70
2024/01/30 05:01:20;;;;;;;11.67;6.60;;;;;;;3.12;100.00;100527.88;4912644;29;20139;-70
2024/01/30 05:03:48;;;;;;;12.13;7.10;;;;;;;3.14;100.00;100533.91;4890579;29;20539;-71
2024/01/30 05:06:25;;;;;;;11.53;7.43;;;;;;;3.21;100.00;100532.59;4920162;29;20087;-74
2024/01/30 05:08:53;;;;;;;10.23;6.80;;;;;;;3.15;100.00;100543.47;4920188;29;20071;-69
2024/01/30 05:11:20;;;;;;;10.63;6.93;;;;;;;3.13;100.00;100542.72;4899975;29;20147;-75
2024/01/30 05:13:47;;;;;;;11.27;6.77;;;;;;;3.18;100.00;100543.28;4932158;29;20047;-72
2024/01/30 05:16:13;;;;;;;13.27;7.40;;;;;;;3.19;100.00;100531.88;4920821;28;20047;-74
2024/01/30 05:18:39;;;;;;;11.40;7.27;;;;;;;3.23;100.00;100536.00;4938483;29;20090;-70
2024/01/30 05:21:05;;;;;;;10.33;6.80;;;;;;;3.30;100.00;100542.59;4966647;28;20054;-72
2024/01/30 05:23:31;;;;;;;12.00;6.67;;;;;;;3.29;100.00;100546.13;4956271;28;20612;-68
2024/01/30 05:25:57;;;;;;;9.93;6.27;;;;;;;3.25;100.00;100535.91;4971682;28;20129;-68
2024/01/30 05:28:23;;;;;;;12.77;7.27;;;;;;;3.30;100.00;100541.72;4999421;28;20041;-70
2024/01/30 05:30:48;;;;;;;9.47;6.47;;;;;;;3.31;100.00;100546.88;5023262;28;20148;-67
2024/01/30 05:33:17;;;;;;;13.67;7.33;;;;;;;3.32;100.00;100547.75;5039949;28;20464;-68
2024/01/30 05:35:43;;;;;;;11.17;7.50;;;;;;;3.35;100.00;100544.94;5039026;28;20084;-69
2024/01/30 05:38:09;;;;;;;10.30;7.07;;;;;;;3.37;100.00;100543.91;5042717;28;20045;-68
2024/01/30 05:40:35;;;;;;;10.03;7.07;;;;;;;3.31;100.00;100538.16;5026558;28;20058;-67
2024/01/30 05:43:02;;;;;;;11.70;7.50;;;;;;;3.33;100.00;100545.03;5037421;28;20036;-68
2024/01/30 05:45:28;;;;;;;10.13;7.13;;;;;;;3.36;100.00;100542.22;5028935;28;20041;-69
2024/01/30 05:47:54;;;;;;;11.73;7.33;;;;;;;3.40;100.00;100546.34;5041214;28;20422;-69
2024/01/30 05:50:23;;;;;;;9.43;6.77;;;;;;;3.43;100.00;100535.66;5039104;28;20053;-69
2024/01/30 05:52:49;;;;;;;9.70;6.50;;;;;;;3.41;100.00;100541.94;5033995;28;20107;-68
2024/01/30 05:55:15;;;;;;;13.30;6.93;;;;;;;3.39;100.00;100543.81;5042427;28;20052;-69
2024/01/30 05:57:41;;;;;;;11.53;6.60;;;;;;;3.38;100.00;100550.81;5025086;28;20557;-68
2024/01/30 06:00:07;;;;;;;13.47;7.90;;;;;;;3.33;100.00;100552.91;5043619;28;20480;-70
2024/01/30 06:02:33;;;;;;;10.00;6.57;;;;;;;3.39;100.00;100551.69;5040469;28;20046;-71
2024/01/30 06:04:59;;;;;;;10.73;6.60;;;;;;;3.44;100.00;100549.63;5025036;28;20102;-70
2024/01/30 06:07:25;;;;;;;10.47;6.80;;;;;;;3.44;100.00;100558.34;4993990;28;20049;-70
2024/01/30 06:09:51;;;;;;;9.13;6.63;;;;;;;3.47;100.00;100568.66;4981839;28;20057;-69
2024/01/30 06:12:16;;;;;;;9.30;6.03;;;;;;;3.47;100.00;100568.66;4997559;28;20111;-68
2024/01/30 06:14:42;;;;;;;9.90;6.67;;;;;;;3.52;100.00;100567.56;5013614;28;20490;-68
2024/01/30 06:17:09;;;;;;;11.90;6.73;;;;;;;3.54;100.00;100579.66;4998912;28;20165;-70
2024/01/30 06:19:34;;;;;;;9.47;5.93;;;;;;;3.54;100.00;100566.53;5014449;28;20385;-68
2024/01/30 06:22:00;;;;;;;9.63;6.87;;;;;;;3.57;100.00;100576.03;5014728;28;20558;-68
2024/01/30 06:24:29;;;;;;;13.13;6.27;;;;;;;3.58;100.00;100570.69;5024971;28;20534;-69
2024/01/30 06:26:56;;;;;;;8.53;6.70;;;;;;;3.55;100.00;100568.25;4993439;28;20435;-71
2024/01/30 06:29:24;;;;;;;10.83;6.83;;;;;;;3.59;100.00;100571.50;5004820;28;20049;-68
2024/01/30 06:31:50;;;;;;;9.97;7.10;;;;;;;3.56;100.00;100575.16;4989584;28;20054;-69
2024/01/30 06:34:16;;;;;;;10.23;7.23;;;;;;;3.64;100.00;100572.06;4979895;28;20095;-68
2024/01/30 06:36:44;;;;;;;12.17;6.73;;;;;;;3.60;100.00;100570.59;5005082;28;20057;-69
2024/01/30 06:39:09;;;;;;;8.50;5.80;;;;;;;3.64;100.00;100570.31;5038654;28;20052;-67
2024/01/30 06:41:35;;;;;;;7.93;6.10;;;;;;;3.69;100.00;100575.28;5016143;28;20041;-70
2024/01/30 06:44:06;;;;;;;8.03;5.97;;;;;;;3.78;100.00;100574.72;5030156;28;20037;-69
2024/01/30 06:46:35;;;;;;;10.13;6.27;;;;;;;3.70;100.00;100569.94;5029279;28;20083;-70
2024/01/30 06:49:01;;;;;;;15.13;7.13;;;;;;;3.74;100.00;100581.94;5034205;28;20523;-68
2024/01/30 06:51:27;;;;;;;10.97;6.77;;;;;;;3.79;100.00;100587.78;5041489;28;20038;-70
2024/01/30 06:53:53;;;;;;;11.13;6.60;;;;;;;3.80;100.00;100583.38;5041854;28;20136;-70
2024/01/30 06:56:20;;;;;;;11.07;6.43;;;;;;;3.85;100.00;100591.78;5029219;28;20072;-71
2024/01/30 06:58:53;;;;;;;12.03;8.00;;;;;;;3.95;100.00;100595.56;5005655;28;20534;-67
2024/01/30 07:01:18;;;;;;;10.53;6.63;;;;;;;3.83;100.00;100594.53;5040906;28;20082;-69
2024/01/30 07:03:44;;;;;;;9.60;6.93;;;;;;;3.85;100.00;100587.41;5040789;28;20482;-69
2024/01/30 07:06:13;;;;;;;9.60;6.77;;;;;;;3.92;100.00;100590.50;5024841;28;20488;-70
2024/01/30 07:08:39;;;;;;;11.27;7.07;;;;;;;3.89;100.00;100595.94;5037672;28;20052;-69
2024/01/30 07:11:06;;;;;;;12.83;7.40;;;;;;;3.94;100.00;100604.38;5048961;28;20098;-71
2024/01/30 07:13:33;;;;;;;10.40;7.20;;;;;;;3.96;100.00;100605.13;5034931;28;20045;-69
2024/01/30 07:15:58;;;;;;;11.77;7.13;;;;;;;3.90;100.00;100605.50;5051626;28;20094;-69
2024/01/30 07:18:24;;;;;;;11.07;6.67;;;;;;;3.98;100.00;100601.50;5034934;28;20037;-70
2024/01/30 07:20:50;;;;;;;9.33;6.20;;;;;;;4.01;100.00;100608.34;5048554;28;20048;-70
2024/01/30 07:23:17;;;;;;;10.37;6.80;;;;;;;4.02;100.00;100596.88;5043397;28;20037;-70
2024/01/30 07:25:44;;;;;;;11.50;5.93;;;;;;;4.06;100.00;100608.91;5025827;28;20041;-69
2024/01/30 07:28:12;;;;;;;11.30;6.70;;;;;;;4.03;100.00;100602.03;5041653;28;20037;-70
2024/01/30 07:30:38;;;;;;;13.97;7.87;;;;;;;4.10;100.00;100615.66;5041634;28;20073;-70
2024/01/30 07:33:04;;;;;;;14.50;7.83;;;;;;;4.12;100.00;100619.88;5040191;28;20037;-71
2024/01/30 07:35:30;;;;;;;10.80;6.50;;;;;;;4.13;100.00;100605.81;5043821;28;20033;-71
2024/01/30 07:37:57;;;;;;;11.43;6.33;;;;;;;4.17;100.00;100606.44;5043494;28;20075;-70
2024/01/30 07:40:23;;;;;;;11.77;7.10;;;;;;;4.21;100.00;100607.97;5018654;28;20053;-71
2024/01/30 07:42:51;;;;;;;10.20;6.77;;;;;;;4.26;100.00;100608.53;5040930;28;20100;-71
2024/01/30 07:45:24;;;;;;;13.13;7.60;;;;;;;4.31;100.00;100616.97;5008912;28;20053;-70
2024/01/30 07:48:02;;;;;;;9.50;6.50;;;;;;;4.33;100.00;100610.69;5046721;28;20064;-72
2024/01/30 07:50:29;;;;;;;14.10;6.57;;;;;;;4.27;100.00;100611.06;5013741;28;20476;-72
2024/01/30 07:52:59;;;;;;;14.33;6.67;;;;;;;4.39;100.00;100614.72;4983692;28;20052;-71
2024/01/30 07:56:01;;;;;;;8.88;6.72;;;;;;;4.42;100.00;100607.50;5030242;28;20095;-73
2024/01/30 07:58:29;;;;;;;10.03;6.47;;;;;;;4.37;100.00;100617.44;5017983;28;20049;-73
2024/01/30 08:00:58;;;;;;;11.20;6.10;;;;;;;4.40;100.00;100612.00;5024298;28;20084;-74
2024/01/30 08:03:24;;;;;;;10.43;6.47;;;;;;;4.44;100.00;100620.53;5014071;28;20045;-74
2024/01/30 08:05:50;;;;;;;10.07;6.60;;;;;;;4.52;100.00;100618.28;5016532;28;20048;-73
2024/01/30 08:08:16;;;;;;;11.83;6.50;;;;;;;4.56;100.00;100617.13;4992984;28;20055;-73
2024/01/30 08:10:42;;;;;;;8.77;6.20;;;;;;;4.58;100.00;100616.09;5042088;28;20049;-74
2024/01/30 08:13:08;;;;;;;10.57;7.50;;;;;;;4.63;100.00;100621.06;5031017;28;20099;-75
2024/01/30 08:15:34;;;;;;;11.83;6.23;;;;;;;4.69;100.00;100616.25;5033206;28;20048;-74
2024/01/30 08:18:00;;;;;;;12.53;7.00;;;;;;;4.73;100.00;100617.78;5014137;28;20480;-73
2024/01/30 08:20:26;;;;;;;11.10;6.60;;;;;;;4.78;100.00;100617.47;5041331;28;20041;-71
2024/01/30 08:22:52;;;;;;;12.43;7.10;;;;;;;4.82;100.00;100618.97;5030350;28;20037;-73
2024/01/30 08:25:18;;;;;;;11.10;7.03;;;;;;;4.85;100.00;100616.13;5015886;28;20511;-71
2024/01/30 08:27:45;;;;;;;10.73;7.05;;;;;;;4.88;100.00;100608.03;5039479;28;20100;-72
2024/01/30 08:30:12;;;;;;;11.32;6.70;;;;;;;4.89;100.00;100613.19;5014474;28;20045;-71
2024/01/30 08:32:38;;;;;;;13.27;7.68;;;;;;;4.88;100.00;100629.09;5048330;28;20041;-71
2024/01/30 08:35:04;;;;;;;13.60;7.30;;;;;;;4.91;100.00;100618.38;5033481;28;20521;-73
2024/01/30 08:37:30;;;;;;;14.48;7.32;;;;;;;4.97;100.00;100610.06;5050213;28;20059;-73
2024/01/30 08:39:56;;;;;;;9.90;7.25;;;;;;;5.02;100.00;100615.91;5051301;28;20131;-73
2024/01/30 08:42:22;;;;;;;11.50;7.15;;;;;;;5.04;100.00;100619.28;5050015;28;20048;-74
2024/01/30 08:44:51;;;;;;;11.73;7.65;;;;;;;5.11;100.00;100613.50;5050170;28;20044;-71
2024/01/30 08:47:18;;;;;;;10.07;7.15;;;;;;;5.12;100.00;100616.97;5050784;28;20113;-72
2024/01/30 08:49:44;;;;;;;12.45;7.85;;;;;;;5.06;100.00;100610.31;5034388;28;20442;-72
2024/01/30 08:52:11;;;;;;;14.57;7.53;;;;;;;5.09;100.00;100614.53;5017804;28;20055;-73
2024/01/30 08:54:37;;;;;;;12.75;7.80;;;;;;;5.08;100.00;100605.81;5018143;28;20048;-74
2024/01/30 08:57:04;;;;;;;11.40;6.95;;;;;;;5.10;100.00;100617.06;5033239;28;20044;-74
2024/01/30 08:59:30;;;;;;;10.70;7.25;;;;;;;5.12;100.00;100611.69;5040685;28;20057;-73
2024/01/30 09:01:58;;;;;;;10.23;7.03;;;;;;;5.10;100.00;100608.34;5013587;28;20375;-75
2024/01/30 09:04:24;;;;;;;11.77;7.65;;;;;;;5.05;100.00;100607.78;5015499;28;20037;-72
2024/01/30 09:06:50;;;;;;;11.68;7.20;;;;;;;5.06;100.00;100612.09;5029358;28;20075;-69
2024/01/30 09:09:17;;;;;;;11.00;7.18;;;;;;;5.08;100.00;100607.59;5034012;28;20126;-73
2024/01/30 09:11:44;;;;;;;11.73;6.90;;;;;;;5.12;100.00;100606.44;5052708;28;20067;-73
2024/01/30 09:14:10;;;;;;;10.65;7.13;;;;;;;5.12;100.00;100601.16;5020969;28;21089;-72
2024/01/30 09:16:36;;;;;;;12.30;7.57;;;;;;;5.13;100.00;100613.41;5052235;28;20135;-70
2024/01/30 09:19:02;;;;;;;14.15;8.02;;;;;;;5.10;100.00;100614.44;5018935;28;20051;-71
2024/01/30 09:21:28;;;;;;;10.82;7.20;;;;;;;5.11;100.00;100615.28;5035445;28;20131;-73
2024/01/30 09:24:03;;;;;;;13.88;7.38;;;;;;;5.21;100.00;100609.31;5034950;28;20067;-73
2024/01/30 09:26:30;;;;;;;15.00;7.10;;;;;;;5.18;100.00;100620.06;5036111;28;20056;-74
2024/01/30 09:28:56;;;;;;;11.88;6.97;;;;;;;5.23;100.00;100622.38;5018624;28;20075;-74
2024/01/30 09:31:22;;;;;;;10.65;6.22;;;;;;;5.30;100.00;100615.78;5052229;28;20067;-72
2024/01/30 09:33:49;;;;;;;10.00;6.15;;;;;;;5.38;100.00;100616.13;5043981;28;20055;-72
2024/01/30 09:36:15;;;;;;;11.40;7.32;;;;;;;5.44;100.00;100621.00;5044551;28;20506;-73
2024/01/30 09:38:41;;;;;;;10.98;6.95;;;;;;;5.40;100.00;100634.47;5016793;28;20051;-71
2024/01/30 09:41:13;;;;;;;10.02;6.70;;;;;;;5.50;100.00;100628.50;5052425;28;20036;-73
2024/01/30 09:43:40;;;;;;;11.68;6.43;;;;;;;5.50;100.00;100632.91;5050125;28;20063;-72
2024/01/30 09:46:08;;;;;;;10.77;6.90;;;;;;;5.61;100.00;100620.72;5034949;28;20086;-70
2024/01/30 09:48:34;;;;;;;10.93;7.10;;;;;;;5.65;100.00;100616.91;5051966;28;20071;-71
2024/01/30 09:51:00;;;;;;;10.60;6.75;;;;;;;5.74;100.00;100616.28;5051087;28;20048;-70
2024/01/30 09:53:26;;;;;;;10.15;5.78;;;;;;;5.84;100.00;100606.84;5020979;28;20094;-72
2024/01/30 09:55:52;;;;;;;9.82;6.30;;;;;;;5.94;100.00;100612.31;5052712;28;20531;-70
2024/01/30 09:58:18;;;;;;;12.50;7.78;;;;;;;5.99;100.00;100607.59;5033385;28;20069;-72
2024/01/30 10:00:44;;;;;;;10.82;7.72;;;;;;;6.01;100.00;100598.59;5041353;28;20376;-70
2024/01/30 10:03:10;;;;;;;12.18;7.18;;;;;;;5.99;100.00;100615.50;5023380;28;20060;-71
2024/01/30 10:05:39;;;;;;;12.77;7.28;;;;;;;5.97;100.00;100607.69;5013233;28;20053;-71
2024/01/30 10:08:08;;;;;;;12.18;7.72;;;;;;;6.01;100.00;100603.06;5013599;28;20463;-71
2024/01/30 10:10:35;;;;;;;11.95;7.47;;;;;;;5.88;100.00;100604.84;5030371;28;20068;-74
2024/01/30 10:13:02;;;;;;;12.23;7.93;;;;;;;5.77;100.00;100604.69;5014426;28;20467;-73
2024/01/30 10:15:28;;;;;;;20.48;9.35;;;;;;;5.81;100.00;100600.91;4988794;28;20402;-73
2024/01/30 10:17:55;;;;;;;13.77;7.72;;;;;;;5.84;100.00;100604.22;5007497;28;20102;-72
2024/01/30 10:20:22;;;;;;;15.60;8.10;;;;;;;5.86;100.00;100607.56;5038737;28;20051;-72
2024/01/30 10:22:51;;;;;;;11.05;7.32;;;;;;;5.96;100.00;100618.34;5038928;28;20075;-70
2024/01/30 10:25:17;;;;;;;10.82;6.82;;;;;;;5.93;100.00;100619.41;5044825;28;20041;-71
2024/01/30 10:27:44;;;;;;;12.48;6.97;;;;;;;5.94;100.00;100614.97;5041253;28;20037;-72
2024/01/30 10:30:10;;;;;;;9.52;6.70;;;;;;;6.05;100.00;100612.44;5005331;28;20208;-72
2024/01/30 10:32:36;;;;;;;10.90;6.95;;;;;;;6.02;100.00;100620.56;4984106;28;20072;-71
2024/01/30 10:35:02;;;;;;;9.43;6.10;;;;;;;6.10;100.00;100619.09;5032673;28;20049;-71
2024/01/30 10:37:31;;;;;;;11.40;6.35;;;;;;;6.05;100.00;100615.91;5016607;28;20041;-72
2024/01/30 10:40:03;;;;;;;11.23;6.80;;;;;;;6.16;100.00;100613.41;5042770;28;20139;-69
2024/01/30 10:42:31;;;;;;;9.25;6.38;;;;;;;6.25;100.00;100602.19;5052449;28;20261;-70
2024/01/30 10:45:08;;;;;;;9.77;6.57;;;;;;;6.38;100.00;100613.56;5051873;28;20056;-69
2024/01/30 10:47:36;;;;;;;10.38;6.45;;;;;;;6.37;100.00;100616.31;5046964;28;20057;-72
2024/01/30 10:50:05;;;;;;;10.93;6.15;;;;;;;6.42;100.00;100612.41;5024530;28;20034;-71
2024/01/30 10:52:32;;;;;;;9.82;5.93;;;;;;;6.49;100.00;100618.94;5033479;28;20075;-71
2024/01/30 10:54:58;;;;;;;9.23;6.53;;;;;;;6.52;100.00;100617.84;4999697;28;20487;-70
2024/01/30 10:57:26;;;;;;;10.35;6.68;;;;;;;6.53;100.00;100624.84;5016395;28;20131;-70
2024/01/30 10:59:58;;;;;;;9.02;5.78;;;;;;;6.61;100.00;100611.94;5047253;28;20115;-70
2024/01/30 11:02:25;;;;;;;11.20;6.03;;;;;;;6.66;100.00;100623.84;5032253;28;20048;-70
2024/01/30 11:04:56;;;;;;;10.35;6.28;;;;;;;6.76;100.00;100616.94;4999446;28;20460;-69
2024/01/30 11:07:27;;;;;;;10.05;6.40;;;;;;;6.79;100.00;100616.75;5032901;28;20068;-69
2024/01/30 11:10:02;;;;;;;11.95;6.10;;;;;;;6.78;100.00;100617.69;5015500;28;20061;-70
2024/01/30 11:12:33;;;;;;;9.98;6.70;;;;;;;6.78;100.00;100630.91;5031433;28;20052;-69
2024/01/30 11:15:09;;;;;;;9.13;6.03;;;;;;;6.85;100.00;100624.25;5030746;28;20578;-71
2024/01/30 11:17:45;;;;;;;9.18;6.18;;;;;;;6.82;100.00;100626.25;5031731;28;20494;-70
2024/01/30 11:20:21;;;;;;;9.85;6.43;;;;;;;6.74;100.00;100632.06;5015523;28;20083;-71
2024/01/30 11:22:49;;;;;;;10.48;6.10;;;;;;;6.70;100.00;100629.78;5031684;28;20037;-72